Time;durP1;ratioP1;P1;durP2;ratioP2;P2;SDS_P1;SDS_P2;PMS_P1;PMS_P2;Temp;Humidity;BMP_temperature;BMP_pressure;BME280_temperature;BME280_humidity;BME280_pressure;Samples;Min_cycle;Max_cycle;Signal;HPM_P1;HPM_P2
2023/11/12 00:03:00;;;;;;;8.23;5.60;;;;;;;-147.20;100.00;63046.97;31548463;28;20048;-63
2023/11/12 00:18:00;;;;;;;10.10;6.82;;;;;;;-147.20;100.00;63046.97;31546854;28;20033;-64
2023/11/12 00:33:01;;;;;;;10.32;6.85;;;;;;;-147.20;100.00;63046.97;31545789;28;20033;-64
2023/11/12 00:48:01;;;;;;;9.77;6.32;;;;;;;-147.20;100.00;63046.97;31544058;28;20036;-64
2023/11/12 01:03:06;;;;;;;8.05;5.13;;;;;;;-147.20;100.00;63046.97;31542631;28;20048;-64
2023/11/12 01:18:07;;;;;;;11.02;7.13;;;;;;;-147.20;100.00;63046.97;31542183;28;20127;-62
2023/11/12 01:33:07;;;;;;;13.40;7.13;;;;;;;-147.20;100.00;63046.97;31540325;28;20036;-63
2023/11/12 01:48:08;;;;;;;9.95;6.53;;;;;;;-147.20;100.00;63046.97;31538866;28;20481;-62
2023/11/12 02:03:13;;;;;;;8.73;6.30;;;;;;;-147.20;100.00;63046.97;31537232;28;20043;-64
2023/11/12 02:18:14;;;;;;;11.43;6.55;;;;;;;-147.20;100.00;63046.97;31574120;28;20040;-63
2023/11/12 02:33:14;;;;;;;10.15;7.10;;;;;;;-147.20;100.00;63046.97;31578192;28;20037;-64
2023/11/12 02:48:14;;;;;;;9.52;6.45;;;;;;;-147.20;100.00;63046.97;31576298;28;20119;-64
2023/11/12 03:03:15;;;;;;;11.52;6.78;;;;;;;-147.20;100.00;63046.97;31575251;28;20045;-63
2023/11/12 03:18:15;;;;;;;9.75;6.60;;;;;;;-147.20;100.00;63046.97;31570207;28;20040;-63
2023/11/12 03:33:15;;;;;;;8.77;6.28;;;;;;;-147.20;100.00;63046.97;31551144;28;24637;-64
2023/11/12 03:48:16;;;;;;;9.68;6.30;;;;;;;-147.20;100.00;63046.97;31550394;28;20130;-63
2023/11/12 04:03:17;;;;;;;10.88;6.10;;;;;;;-147.20;100.00;63046.97;31548458;28;20053;-63
2023/11/12 04:18:17;;;;;;;10.93;6.03;;;;;;;-147.20;100.00;63046.97;31547185;28;20536;-65
2023/11/12 04:33:19;;;;;;;8.50;5.75;;;;;;;-147.20;100.00;63046.97;31545665;28;20032;-64
2023/11/12 04:48:19;;;;;;;11.20;5.90;;;;;;;-147.20;100.00;63046.97;31543119;28;20036;-64
2023/11/12 05:03:20;;;;;;;9.05;5.53;;;;;;;-147.20;100.00;63046.97;31539712;28;20053;-65
2023/11/12 05:18:21;;;;;;;8.65;5.70;;;;;;;-147.20;100.00;63046.97;31539515;28;20069;-64
2023/11/12 05:33:22;;;;;;;9.35;6.40;;;;;;;-147.20;100.00;63046.97;31537211;28;20029;-64
2023/11/12 05:48:22;;;;;;;13.30;5.65;;;;;;;-147.20;100.00;63046.97;31535589;28;20428;-64
2023/11/12 06:03:23;;;;;;;9.52;6.07;;;;;;;-147.20;100.00;63046.97;31533592;28;20064;-63
2023/11/12 06:18:23;;;;;;;8.65;6.25;;;;;;;-147.20;100.00;63046.97;31534709;28;20059;-63
2023/11/12 06:33:23;;;;;;;8.90;5.57;;;;;;;-147.20;100.00;63046.97;31533561;28;20040;-63
2023/11/12 06:48:24;;;;;;;9.25;5.97;;;;;;;-147.20;100.00;63046.97;31529420;28;28257;-63
2023/11/12 07:03:24;;;;;;;9.68;6.10;;;;;;;-147.20;100.00;63046.97;31545649;28;20049;-63
2023/11/12 07:18:25;;;;;;;10.65;5.20;;;;;;;-147.20;100.00;63046.97;31550273;28;20868;-64
2023/11/12 07:33:25;;;;;;;10.10;5.18;;;;;;;-147.20;100.00;63046.97;31549582;28;20104;-64
2023/11/12 07:48:26;;;;;;;6.53;4.15;;;;;;;-147.20;100.00;63046.97;31545128;28;20039;-61
2023/11/12 08:03:26;;;;;;;6.80;4.38;;;;;;;-147.20;100.00;63046.97;31542540;28;20049;-63
2023/11/12 08:18:28;;;;;;;6.13;4.55;;;;;;;-147.20;100.00;63046.97;31543427;28;20053;-64
2023/11/12 08:33:28;;;;;;;6.32;4.28;;;;;;;-147.20;100.00;63046.97;31542229;28;25865;-64
2023/11/12 08:48:32;;;;;;;8.13;4.72;;;;;;;-147.20;100.00;63046.97;31540164;28;20833;-66
2023/11/12 09:03:32;;;;;;;7.25;5.50;;;;;;;-147.20;100.00;63046.97;31539796;28;20441;-64
2023/11/12 09:18:33;;;;;;;6.45;4.07;;;;;;;-147.20;100.00;63046.97;31538411;28;20041;-65
2023/11/12 09:33:34;;;;;;;10.82;6.63;;;;;;;-147.20;100.00;63046.97;31536426;28;20031;-64
2023/11/12 09:48:39;;;;;;;5.90;3.95;;;;;;;-147.20;100.00;63046.97;31534711;28;20473;-64
2023/11/12 10:03:43;;;;;;;6.75;4.68;;;;;;;-147.20;100.00;63046.97;31533911;28;20049;-65
2023/11/12 10:18:43;;;;;;;8.55;4.45;;;;;;;-147.20;100.00;63046.97;31532990;28;20049;-64
2023/11/12 10:33:58;;;;;;;8.55;5.40;;;;;;;-147.20;100.00;63046.97;31544540;28;20304;-65
2023/11/12 10:49:00;;;;;;;6.70;4.35;;;;;;;-147.20;100.00;63046.97;31551169;28;20029;-64
2023/11/12 11:04:01;;;;;;;4.78;3.72;;;;;;;-147.20;100.00;63046.97;31551871;28;20045;-64
2023/11/12 11:19:03;;;;;;;7.60;3.83;;;;;;;-147.20;100.00;63046.97;31548374;28;20500;-65
2023/11/12 11:34:07;;;;;;;6.03;3.90;;;;;;;-147.20;100.00;63046.97;31546196;28;20409;-64
2023/11/12 11:49:11;;;;;;;6.68;4.00;;;;;;;-147.20;100.00;63046.97;31545016;28;20398;-65
2023/11/12 12:04:13;;;;;;;;;;;;;;;-147.20;100.00;63046.97;31547239;28;20139;-64
2023/11/12 12:19:17;;;;;;;5.35;3.40;;;;;;;-147.20;100.00;63046.97;31546767;28;19917;-65
2023/11/12 12:34:19;;;;;;;6.13;4.10;;;;;;;-147.20;100.00;63046.97;31542727;28;20409;-65
2023/11/12 12:49:30;;;;;;;5.80;4.00;;;;;;;-147.20;100.00;63046.97;31541088;28;20037;-65
2023/11/12 13:04:32;;;;;;;5.22;3.13;;;;;;;-147.20;100.00;63046.97;31539561;28;20053;-67
2023/11/12 13:19:33;;;;;;;4.95;3.67;;;;;;;-147.20;100.00;63046.97;31536559;28;20044;-64
2023/11/12 13:34:33;;;;;;;5.90;3.75;;;;;;;-147.20;100.00;63046.97;31536753;28;20024;-64
2023/11/12 13:49:34;;;;;;;4.60;3.10;;;;;;;-147.20;100.00;63046.97;31534243;28;20544;-63
2023/11/12 14:04:35;;;;;;;6.38;4.68;;;;;;;-147.20;100.00;63046.97;31534001;28;20039;-64
2023/11/12 14:19:35;;;;;;;6.22;3.80;;;;;;;-147.20;100.00;63046.97;31532269;28;20045;-67
2023/11/12 14:34:37;;;;;;;4.90;2.95;;;;;;;-147.20;100.00;63046.97;31532729;28;20633;-64
2023/11/12 14:49:37;;;;;;;5.47;3.40;;;;;;;-147.20;100.00;63046.97;31532574;28;20045;-64
2023/11/12 15:04:37;;;;;;;4.68;3.25;;;;;;;-147.20;100.00;63046.97;31530110;28;20029;-65
2023/11/12 15:19:41;;;;;;;4.75;3.30;;;;;;;-147.20;100.00;63046.97;31537770;28;20044;-63
2023/11/12 15:34:41;;;;;;;7.00;4.20;;;;;;;-147.20;100.00;63046.97;31548644;28;20074;-63
2023/11/12 15:49:42;;;;;;;8.63;5.70;;;;;;;-147.20;100.00;63046.97;31548715;28;20057;-63
2023/11/12 16:04:42;;;;;;;8.07;4.85;;;;;;;-147.20;100.00;63046.97;31548070;28;20025;-61
2023/11/12 16:19:42;;;;;;;9.27;5.50;;;;;;;-147.20;100.00;63046.97;31544469;28;21142;-63
2023/11/12 16:34:43;;;;;;;9.40;5.20;;;;;;;-147.20;100.00;63046.97;31544030;28;20040;-63
2023/11/12 16:49:43;;;;;;;16.58;7.60;;;;;;;-147.20;100.00;63046.97;31538766;28;20048;-62
2023/11/12 17:04:45;;;;;;;14.70;8.30;;;;;;;-147.20;100.00;63046.97;31538621;28;20028;-62
2023/11/12 17:19:45;;;;;;;15.57;9.48;;;;;;;-147.20;100.00;63046.97;31537096;28;20037;-63
2023/11/12 17:34:46;;;;;;;16.65;10.00;;;;;;;-147.20;100.00;63046.97;31537914;28;20087;-63
2023/11/12 17:49:54;;;;;;;18.38;8.00;;;;;;;-147.20;100.00;63046.97;31527421;28;20045;-63
2023/11/12 18:04:55;;;;;;;13.43;8.70;;;;;;;-147.20;100.00;63046.97;31526833;28;20734;-63
2023/11/12 18:19:56;;;;;;;16.65;9.38;;;;;;;-147.20;100.00;63046.97;31527860;28;20079;-64
2023/11/12 18:34:57;;;;;;;19.17;10.85;;;;;;;-147.20;100.00;63046.97;31524836;28;20033;-66
2023/11/12 18:49:59;;;;;;;19.38;11.18;;;;;;;-147.20;100.00;63046.97;31581891;28;20685;-65
2023/11/12 19:04:59;;;;;;;18.95;10.93;;;;;;;-147.20;100.00;63046.97;31573425;28;20493;-65
2023/11/12 19:20:00;;;;;;;18.95;11.27;;;;;;;-147.20;100.00;63046.97;31538506;28;20120;-65
2023/11/12 19:35:01;;;;;;;19.58;11.63;;;;;;;-147.20;100.00;63046.97;31540805;28;20428;-65
2023/11/12 19:50:01;;;;;;;16.20;11.27;;;;;;;-147.20;100.00;63046.97;31538136;28;20049;-64
2023/11/12 20:05:02;;;;;;;22.38;12.85;;;;;;;-147.20;100.00;63046.97;31536709;28;20116;-64
2023/11/12 20:20:03;;;;;;;16.25;10.05;;;;;;;-147.20;100.00;63046.97;31536041;28;20021;-65
2023/11/12 20:35:04;;;;;;;11.52;7.57;;;;;;;-147.20;100.00;63046.97;31534164;28;20477;-65
2023/11/12 20:50:05;;;;;;;4.50;2.85;;;;;;;-147.20;100.00;63046.97;31533830;28;20055;-65
2023/11/12 21:05:05;;;;;;;10.63;6.28;;;;;;;-147.20;100.00;63046.97;31531677;28;20041;-65
2023/11/12 21:20:06;;;;;;;17.40;8.48;;;;;;;-147.20;100.00;63046.97;31510433;28;20039;-65
2023/11/12 21:35:09;;;;;;;13.10;8.15;;;;;;;-147.20;100.00;63046.97;31560716;28;20086;-65
2023/11/12 21:50:15;;;;;;;13.90;8.07;;;;;;;-147.20;100.00;63046.97;31550858;28;20059;-65
2023/11/12 22:05:17;;;;;;;14.57;10.10;;;;;;;-147.20;100.00;63046.97;31535181;28;20130;-66
2023/11/12 22:20:17;;;;;;;15.40;10.27;;;;;;;-147.20;100.00;63046.97;31549447;28;20043;-66
2023/11/12 22:35:17;;;;;;;17.52;11.63;;;;;;;-147.20;100.00;63046.97;31565603;28;20956;-65
2023/11/12 22:50:20;;;;;;;18.15;11.07;;;;;;;-147.20;100.00;63046.97;31554853;28;20065;-64
2023/11/12 23:05:21;;;;;;;19.88;12.75;;;;;;;-147.20;100.00;63046.97;31554599;28;20029;-65
2023/11/12 23:20:21;;;;;;;20.65;11.95;;;;;;;-147.20;100.00;63046.97;31570205;28;20493;-66
2023/11/12 23:35:21;;;;;;;18.88;12.13;;;;;;;-147.20;100.00;63046.97;31496967;28;20044;-64
2023/11/12 23:50:24;;;;;;;17.02;11.50;;;;;;;-147.20;100.00;63046.97;31540472;28;20104;-64
